map of KUNO home
Great Circle Mapper logo
KUNO - Airport
Location
City:  West Plains, Missouri, United States
Name:West Plains Regional
ICAO:KUNO
FAA:UNO

Details
Type:Airport (Airfield)
Use:Public/Civil
Latitude:3652'42"N (36.878417)
Longitude:9154'10"W (-91.902666)
Datum:WGS 1984
Elevation:1228 ft (374 m)
Runways:1
Longest:5101 × 75 ft (1555 × 23 m), paved

Time
Time Zone:UTC-6 (DST-5)
Local Time:

Weather
METAR:KUNO 161853Z AUTO 07005KT 10SM FEW017 OVC025 19/14 A3017 RMK AO2 SLP207 T01940139

Related Locations
Nearby:
Farthest:MGV: 10911 mi / 17559 km
Margaret River, WA, AU

Find:

   beyond  
but within

Other Information
Maps:
NOTAMs:
Links:
Sources:

  
flag of United States
flag of Missouri
  

Sectional Chart

Flight Planning
at skyvector.com

Satellite Image

Google Maps Satellite View

 

Copyright © 2004-2014 Karl L. Swartz. All rights reserved.
The Great Circle Mapper name and logo are trademarks of the Great Circle Mapper.
All other trademarks mentioned herein belong to their respective owners.
Please see credits for attibutions and further copyright information.

  Follow gcmap on Facebook Follow gcmap on Twitter

hCard Microformat

Geo Microformat